sensor_id;sensor_type;location;lat;lon;timestamp;pressure;altitude;pressure_sealevel;temperature;humidity
55347;BME280;41218;55.700;38.270;2023-04-26T00:01:25;98487.66;;;12.06;65.17
55347;BME280;41218;55.700;38.270;2023-04-26T00:06:26;98494.69;;;12.17;64.28
55347;BME280;41218;55.700;38.270;2023-04-26T00:11:27;98491.16;;;12.13;65.22
55347;BME280;41218;55.700;38.270;2023-04-26T00:16:27;98479.84;;;11.97;65.67
55347;BME280;41218;55.700;38.270;2023-04-26T00:21:28;98482.97;;;12.02;65.69
55347;BME280;41218;55.700;38.270;2023-04-26T00:26:28;98478.19;;;12.07;65.51
55347;BME280;41218;55.700;38.270;2023-04-26T00:31:29;98471.03;;;12.09;65.72
55347;BME280;41218;55.700;38.270;2023-04-26T00:36:29;98461.25;;;11.97;66.12
55347;BME280;41218;55.700;38.270;2023-04-26T00:41:31;98445.50;;;11.87;66.45
55347;BME280;41218;55.700;38.270;2023-04-26T00:46:32;98445.91;;;11.89;66.41
55347;BME280;41218;55.700;38.270;2023-04-26T00:51:32;98434.03;;;11.92;66.51
55347;BME280;41218;55.700;38.270;2023-04-26T00:56:33;98439.09;;;11.97;66.17
55347;BME280;41218;55.700;38.270;2023-04-26T01:01:35;98434.31;;;12.01;66.45
55347;BME280;41218;55.700;38.270;2023-04-26T01:06:38;98427.28;;;11.93;66.82
55347;BME280;41218;55.700;38.270;2023-04-26T01:11:39;98425.28;;;11.94;67.16
55347;BME280;41218;55.700;38.270;2023-04-26T01:16:41;98417.84;;;11.83;67.56
55347;BME280;41218;55.700;38.270;2023-04-26T01:21:45;98407.56;;;11.84;67.48
55347;BME280;41218;55.700;38.270;2023-04-26T01:26:46;98405.97;;;11.83;67.74
55347;BME280;41218;55.700;38.270;2023-04-26T01:31:47;98393.72;;;11.84;67.74
55347;BME280;41218;55.700;38.270;2023-04-26T01:36:48;98393.66;;;11.88;67.67
55347;BME280;41218;55.700;38.270;2023-04-26T01:41:48;98381.47;;;11.81;67.75
55347;BME280;41218;55.700;38.270;2023-04-26T01:46:49;98375.22;;;11.74;68.09
55347;BME280;41218;55.700;38.270;2023-04-26T01:51:49;98368.88;;;11.77;67.78
55347;BME280;41218;55.700;38.270;2023-04-26T01:56:50;98363.34;;;11.77;67.86
55347;BME280;41218;55.700;38.270;2023-04-26T02:01:54;98361.72;;;11.79;68.09
55347;BME280;41218;55.700;38.270;2023-04-26T02:06:54;98362.06;;;11.85;67.80
55347;BME280;41218;55.700;38.270;2023-04-26T02:11:56;98356.19;;;11.79;67.78
55347;BME280;41218;55.700;38.270;2023-04-26T02:16:56;98342.31;;;11.83;67.94
55347;BME280;41218;55.700;38.270;2023-04-26T02:21:57;98338.69;;;11.90;67.71
55347;BME280;41218;55.700;38.270;2023-04-26T02:26:58;98345.44;;;11.85;67.84
55347;BME280;41218;55.700;38.270;2023-04-26T02:32:02;98337.56;;;11.83;67.96
55347;BME280;41218;55.700;38.270;2023-04-26T02:37:04;98341.94;;;11.81;68.22
55347;BME280;41218;55.700;38.270;2023-04-26T02:42:11;98329.69;;;11.82;68.69
55347;BME280;41218;55.700;38.270;2023-04-26T02:47:11;98318.72;;;11.71;68.16
55347;BME280;41218;55.700;38.270;2023-04-26T02:52:12;98322.16;;;11.82;68.19
55347;BME280;41218;55.700;38.270;2023-04-26T02:57:12;98324.44;;;11.88;67.97
55347;BME280;41218;55.700;38.270;2023-04-26T03:02:13;98309.50;;;11.81;68.14
55347;BME280;41218;55.700;38.270;2023-04-26T03:07:13;98316.63;;;11.82;68.51
55347;BME280;41218;55.700;38.270;2023-04-26T03:12:14;98313.06;;;11.82;68.65
55347;BME280;41218;55.700;38.270;2023-04-26T03:17:14;98308.31;;;11.82;68.71
55347;BME280;41218;55.700;38.270;2023-04-26T03:22:15;98310.31;;;11.82;68.93
55347;BME280;41218;55.700;38.270;2023-04-26T03:27:17;98302.03;;;11.78;69.05
55347;BME280;41218;55.700;38.270;2023-04-26T03:32:17;98302.00;;;11.82;69.30
55347;BME280;41218;55.700;38.270;2023-04-26T03:37:18;98301.19;;;11.81;69.13
55347;BME280;41218;55.700;38.270;2023-04-26T03:42:19;98299.97;;;11.86;69.31
55347;BME280;41218;55.700;38.270;2023-04-26T03:47:20;98290.81;;;11.93;68.94
55347;BME280;41218;55.700;38.270;2023-04-26T03:52:20;98284.81;;;11.98;68.57
55347;BME280;41218;55.700;38.270;2023-04-26T03:57:21;98276.41;;;12.05;68.68
55347;BME280;41218;55.700;38.270;2023-04-26T04:02:21;98285.91;;;12.04;68.70
55347;BME280;41218;55.700;38.270;2023-04-26T04:07:25;98289.94;;;11.99;69.14
55347;BME280;41218;55.700;38.270;2023-04-26T04:12:26;98270.66;;;11.92;69.12
55347;BME280;41218;55.700;38.270;2023-04-26T04:17:26;98272.91;;;12.01;69.26
55347;BME280;41218;55.700;38.270;2023-04-26T04:22:27;98272.91;;;12.01;69.47
55347;BME280;41218;55.700;38.270;2023-04-26T04:27:27;98269.66;;;12.06;69.65
55347;BME280;41218;55.700;38.270;2023-04-26T04:32:28;98266.84;;;12.10;69.58
55347;BME280;41218;55.700;38.270;2023-04-26T04:37:29;98270.72;;;12.16;69.59
55347;BME280;41218;55.700;38.270;2023-04-26T04:42:32;98253.41;;;12.08;69.82
55347;BME280;41218;55.700;38.270;2023-04-26T04:47:34;98257.59;;;12.20;69.97
55347;BME280;41218;55.700;38.270;2023-04-26T04:52:36;98263.47;;;12.26;69.88
55347;BME280;41218;55.700;38.270;2023-04-26T04:57:37;98268.59;;;12.27;69.67
55347;BME280;41218;55.700;38.270;2023-04-26T05:02:37;98265.44;;;12.29;70.15
55347;BME280;41218;55.700;38.270;2023-04-26T05:07:38;98261.03;;;12.31;69.82
55347;BME280;41218;55.700;38.270;2023-04-26T05:12:39;98270.44;;;12.37;70.03
55347;BME280;41218;55.700;38.270;2023-04-26T05:17:40;98256.94;;;12.39;70.58
55347;BME280;41218;55.700;38.270;2023-04-26T05:22:41;98261.94;;;12.48;69.76
55347;BME280;41218;55.700;38.270;2023-04-26T05:27:42;98255.63;;;12.48;69.94
55347;BME280;41218;55.700;38.270;2023-04-26T05:32:44;98256.38;;;12.52;70.06
55347;BME280;41218;55.700;38.270;2023-04-26T05:37:45;98263.09;;;12.51;70.07
55347;BME280;41218;55.700;38.270;2023-04-26T05:42:45;98263.16;;;12.47;70.33
55347;BME280;41218;55.700;38.270;2023-04-26T05:47:46;98263.09;;;12.51;70.50
55347;BME280;41218;55.700;38.270;2023-04-26T05:52:47;98272.13;;;12.55;70.45
55347;BME280;41218;55.700;38.270;2023-04-26T05:57:47;98258.34;;;12.51;70.61
55347;BME280;41218;55.700;38.270;2023-04-26T06:02:49;98265.00;;;12.57;70.76
55347;BME280;41218;55.700;38.270;2023-04-26T06:07:50;98266.00;;;12.67;70.00
55347;BME280;41218;55.700;38.270;2023-04-26T06:12:51;98268.50;;;12.61;70.54
55347;BME280;41218;55.700;38.270;2023-04-26T06:17:52;98273.22;;;12.61;70.87
55347;BME280;41218;55.700;38.270;2023-04-26T06:22:52;98271.56;;;12.67;70.94
55347;BME280;41218;55.700;38.270;2023-04-26T06:27:53;98268.50;;;12.61;71.17
55347;BME280;41218;55.700;38.270;2023-04-26T06:32:54;98276.38;;;12.63;71.16
55347;BME280;41218;55.700;38.270;2023-04-26T06:37:54;98274.75;;;12.66;71.17
55347;BME280;41218;55.700;38.270;2023-04-26T06:42:55;98271.41;;;12.78;71.15
55347;BME280;41218;55.700;38.270;2023-04-26T06:47:56;98267.94;;;12.70;71.31
55347;BME280;41218;55.700;38.270;2023-04-26T06:52:57;98280.53;;;12.75;71.33
55347;BME280;41218;55.700;38.270;2023-04-26T06:57:57;98277.66;;;12.82;71.54
55347;BME280;41218;55.700;38.270;2023-04-26T07:02:58;98286.00;;;12.82;71.26
55347;BME280;41218;55.700;38.270;2023-04-26T07:07:58;98282.72;;;12.87;71.27
55347;BME280;41218;55.700;38.270;2023-04-26T07:12:59;98292.56;;;12.92;71.33
55347;BME280;41218;55.700;38.270;2023-04-26T07:18:00;98294.63;;;12.88;71.29
55347;BME280;41218;55.700;38.270;2023-04-26T07:23:00;98291.84;;;12.88;71.38
55347;BME280;41218;55.700;38.270;2023-04-26T07:28:01;98283.09;;;12.89;71.36
55347;BME280;41218;55.700;38.270;2023-04-26T07:33:01;98299.50;;;13.03;71.53
55347;BME280;41218;55.700;38.270;2023-04-26T07:38:02;98299.44;;;13.07;71.20
55347;BME280;41218;55.700;38.270;2023-04-26T07:43:03;98299.44;;;13.07;71.27
55347;BME280;41218;55.700;38.270;2023-04-26T07:48:04;98295.88;;;13.07;71.35
55347;BME280;41218;55.700;38.270;2023-04-26T07:53:05;98311.81;;;13.02;71.25
55347;BME280;41218;55.700;38.270;2023-04-26T07:58:05;98305.94;;;12.97;71.46
55347;BME280;41218;55.700;38.270;2023-04-26T08:03:07;98312.28;;;12.97;71.57
55347;BME280;41218;55.700;38.270;2023-04-26T08:08:07;98318.53;;;13.01;71.58
55347;BME280;41218;55.700;38.270;2023-04-26T08:13:08;98325.31;;;13.00;71.46
55347;BME280;41218;55.700;38.270;2023-04-26T08:18:08;98320.94;;;12.99;71.64
55347;BME280;41218;55.700;38.270;2023-04-26T08:23:09;98312.34;;;12.94;71.47
55347;BME280;41218;55.700;38.270;2023-04-26T08:28:09;98336.63;;;13.10;71.60
55347;BME280;41218;55.700;38.270;2023-04-26T08:33:13;98329.16;;;13.07;71.41
55347;BME280;41218;55.700;38.270;2023-04-26T08:38:14;98333.81;;;13.13;71.76
55347;BME280;41218;55.700;38.270;2023-04-26T08:43:15;98330.97;;;13.17;71.82
55347;BME280;41218;55.700;38.270;2023-04-26T08:48:18;98332.13;;;13.19;71.56
55347;BME280;41218;55.700;38.270;2023-04-26T08:53:19;98323.44;;;13.17;71.46
55347;BME280;41218;55.700;38.270;2023-04-26T08:58:21;98342.03;;;13.20;71.67
55347;BME280;41218;55.700;38.270;2023-04-26T09:03:22;98340.69;;;13.29;71.41
55347;BME280;41218;55.700;38.270;2023-04-26T09:08:25;98341.09;;;13.31;71.37
55347;BME280;41218;55.700;38.270;2023-04-26T09:13:28;98354.09;;;13.34;71.53
55347;BME280;41218;55.700;38.270;2023-04-26T09:18:31;98356.81;;;13.37;71.48
55347;BME280;41218;55.700;38.270;2023-04-26T09:23:33;98363.50;;;13.40;71.47
55347;BME280;41218;55.700;38.270;2023-04-26T09:28:34;98363.81;;;13.46;71.28
55347;BME280;41218;55.700;38.270;2023-04-26T09:33:35;98356.72;;;13.45;71.12
55347;BME280;41218;55.700;38.270;2023-04-26T09:38:41;98366.91;;;13.51;71.54
55347;BME280;41218;55.700;38.270;2023-04-26T09:43:41;98373.13;;;13.59;71.06
55347;BME280;41218;55.700;38.270;2023-04-26T09:48:42;98368.66;;;13.65;70.78
55347;BME280;41218;55.700;38.270;2023-04-26T09:53:48;98377.28;;;13.71;71.12
55347;BME280;41218;55.700;38.270;2023-04-26T10:03:52;98395.00;;;13.77;70.31
55347;BME280;41218;55.700;38.270;2023-04-26T10:08:53;98397.50;;;13.71;70.33
55347;BME280;41218;55.700;38.270;2023-04-26T10:13:54;98396.72;;;13.91;69.72
55347;BME280;41218;55.700;38.270;2023-04-26T10:18:55;98407.66;;;14.01;69.99
55347;BME280;41218;55.700;38.270;2023-04-26T10:23:55;98409.84;;;14.10;69.91
55347;BME280;41218;55.700;38.270;2023-04-26T10:28:57;98420.25;;;14.06;69.05
55347;BME280;41218;55.700;38.270;2023-04-26T10:34:17;98424.75;;;14.00;69.10
55347;BME280;41218;55.700;38.270;2023-04-26T10:39:19;98435.06;;;13.99;68.96
55347;BME280;41218;55.700;38.270;2023-04-26T10:44:40;98427.94;;;13.98;68.64
55347;BME280;41218;55.700;38.270;2023-04-26T10:49:45;98443.34;;;14.03;68.55
55347;BME280;41218;55.700;38.270;2023-04-26T10:54:53;98447.97;;;14.10;68.21
55347;BME280;41218;55.700;38.270;2023-04-26T11:11:12;98459.38;;;14.35;67.24
55347;BME280;41218;55.700;38.270;2023-04-26T11:16:16;98460.38;;;14.45;66.80
55347;BME280;41218;55.700;38.270;2023-04-26T11:21:16;98457.00;;;14.57;66.94
55347;BME280;41218;55.700;38.270;2023-04-26T11:26:18;98467.03;;;14.71;66.25
55347;BME280;41218;55.700;38.270;2023-04-26T11:31:19;98468.03;;;14.81;65.79
55347;BME280;41218;55.700;38.270;2023-04-26T11:36:21;98464.63;;;14.73;65.34
55347;BME280;41218;55.700;38.270;2023-04-26T11:41:22;98480.00;;;14.78;65.43
55347;BME280;41218;55.700;38.270;2023-04-26T11:46:23;98486.72;;;14.80;65.14
55347;BME280;41218;55.700;38.270;2023-04-26T11:51:24;98497.50;;;14.78;64.78
55347;BME280;41218;55.700;38.270;2023-04-26T11:56:25;98498.50;;;14.88;64.59
55347;BME280;41218;55.700;38.270;2023-04-26T12:01:27;98509.69;;;14.85;63.96
55347;BME280;41218;55.700;38.270;2023-04-26T12:06:30;98522.19;;;14.76;64.17
55347;BME280;41218;55.700;38.270;2023-04-26T12:11:32;98524.50;;;14.78;64.15
55347;BME280;41218;55.700;38.270;2023-04-26T12:16:36;98527.66;;;14.80;63.79
55347;BME280;41218;55.700;38.270;2023-04-26T12:21:41;98530.22;;;14.71;63.24
55347;BME280;41218;55.700;38.270;2023-04-26T12:26:44;98529.75;;;14.56;63.20
55347;BME280;41218;55.700;38.270;2023-04-26T12:31:45;98536.84;;;14.57;63.32
55347;BME280;41218;55.700;38.270;2023-04-26T12:36:46;98546.81;;;14.54;63.41
55347;BME280;41218;55.700;38.270;2023-04-26T12:41:46;98543.66;;;14.56;63.54
55347;BME280;41218;55.700;38.270;2023-04-26T12:46:48;98545.56;;;14.59;63.49
55347;BME280;41218;55.700;38.270;2023-04-26T12:51:49;98546.56;;;14.69;63.71
55347;BME280;41218;55.700;38.270;2023-04-26T12:56:49;98543.91;;;14.81;63.47
55347;BME280;41218;55.700;38.270;2023-04-26T13:01:50;98556.75;;;14.95;63.11
55347;BME280;41218;55.700;38.270;2023-04-26T13:06:50;98545.56;;;14.99;62.75
55347;BME280;41218;55.700;38.270;2023-04-26T13:11:51;98549.34;;;15.09;62.57
55347;BME280;41218;55.700;38.270;2023-04-26T13:16:52;98553.19;;;15.15;62.06
55347;BME280;41218;55.700;38.270;2023-04-26T13:21:52;98556.50;;;15.26;61.62
55347;BME280;41218;55.700;38.270;2023-04-26T13:26:53;98568.31;;;15.14;61.07
55347;BME280;41218;55.700;38.270;2023-04-26T13:31:54;98578.38;;;15.08;61.00
55347;BME280;41218;55.700;38.270;2023-04-26T13:36:56;98585.16;;;14.87;61.04
55347;BME280;41218;55.700;38.270;2023-04-26T13:41:58;98587.28;;;14.79;61.57
55347;BME280;41218;55.700;38.270;2023-04-26T13:46:58;98588.50;;;14.78;62.44
55347;BME280;41218;55.700;38.270;2023-04-26T13:52:00;98598.28;;;14.86;62.91
55347;BME280;41218;55.700;38.270;2023-04-26T13:57:00;98586.19;;;14.96;62.66
55347;BME280;41218;55.700;38.270;2023-04-26T14:02:01;98606.38;;;15.00;62.37
55347;BME280;41218;55.700;38.270;2023-04-26T14:07:03;98602.50;;;14.94;62.33
55347;BME280;41218;55.700;38.270;2023-04-26T14:12:03;98622.69;;;14.98;62.03
55347;BME280;41218;55.700;38.270;2023-04-26T14:17:04;98618.28;;;15.01;61.48
55347;BME280;41218;55.700;38.270;2023-04-26T14:22:04;98617.19;;;14.95;61.37
55347;BME280;41218;55.700;38.270;2023-04-26T14:27:05;98629.25;;;15.08;60.93
55347;BME280;41218;55.700;38.270;2023-04-26T14:32:06;98639.47;;;15.15;60.50
55347;BME280;41218;55.700;38.270;2023-04-26T14:37:07;98640.97;;;15.19;60.19
55347;BME280;41218;55.700;38.270;2023-04-26T14:42:07;98646.53;;;15.19;59.71
55347;BME280;41218;55.700;38.270;2023-04-26T14:47:08;98634.63;;;15.19;59.20
55347;BME280;41218;55.700;38.270;2023-04-26T14:52:08;98660.94;;;15.14;59.13
55347;BME280;41218;55.700;38.270;2023-04-26T14:57:09;98651.44;;;15.12;59.12
55347;BME280;41218;55.700;38.270;2023-04-26T15:02:09;98658.97;;;15.15;59.15
55347;BME280;41218;55.700;38.270;2023-04-26T15:07:10;98656.19;;;15.15;58.87
55347;BME280;41218;55.700;38.270;2023-04-26T15:12:11;98659.38;;;15.13;58.66
55347;BME280;41218;55.700;38.270;2023-04-26T15:17:11;98654.66;;;15.10;58.33
55347;BME280;41218;55.700;38.270;2023-04-26T15:22:12;98655.81;;;15.13;58.09
55347;BME280;41218;55.700;38.270;2023-04-26T15:27:12;98662.16;;;15.13;58.02
55347;BME280;41218;55.700;38.270;2023-04-26T15:32:13;98662.94;;;15.14;57.70
55347;BME280;41218;55.700;38.270;2023-04-26T15:37:13;98672.06;;;15.14;57.68
55347;BME280;41218;55.700;38.270;2023-04-26T15:42:14;98686.28;;;15.20;57.66
55347;BME280;41218;55.700;38.270;2023-04-26T15:47:15;98686.84;;;15.11;57.84
55347;BME280;41218;55.700;38.270;2023-04-26T15:52:15;98700.47;;;15.06;57.83
55347;BME280;41218;55.700;38.270;2023-04-26T15:57:17;98693.75;;;15.03;57.85
55347;BME280;41218;55.700;38.270;2023-04-26T16:02:17;98705.72;;;15.00;58.12
55347;BME280;41218;55.700;38.270;2023-04-26T16:07:18;98707.78;;;14.96;58.29
55347;BME280;41218;55.700;38.270;2023-04-26T16:12:18;98700.38;;;14.89;58.24
55347;BME280;41218;55.700;38.270;2023-04-26T16:17:19;98714.75;;;14.84;58.55
55347;BME280;41218;55.700;38.270;2023-04-26T16:22:19;98716.44;;;14.78;58.72
55347;BME280;41218;55.700;38.270;2023-04-26T16:27:20;98724.16;;;14.70;58.95
55347;BME280;41218;55.700;38.270;2023-04-26T16:32:21;98724.31;;;14.59;59.12
55347;BME280;41218;55.700;38.270;2023-04-26T16:37:21;98717.34;;;14.48;59.32
55347;BME280;41218;55.700;38.270;2023-04-26T16:42:22;98728.16;;;14.42;59.18
55347;BME280;41218;55.700;38.270;2023-04-26T16:47:23;98736.22;;;14.33;59.35
55347;BME280;41218;55.700;38.270;2023-04-26T16:52:23;98741.16;;;14.21;59.60
55347;BME280;41218;55.700;38.270;2023-04-26T16:57:24;98744.88;;;14.11;59.54
55347;BME280;41218;55.700;38.270;2023-04-26T17:02:24;98748.19;;;13.99;59.62
55347;BME280;41218;55.700;38.270;2023-04-26T17:07:25;98751.16;;;13.85;59.57
55347;BME280;41218;55.700;38.270;2023-04-26T17:12:26;98761.03;;;13.89;59.58
55347;BME280;41218;55.700;38.270;2023-04-26T17:17:26;98764.41;;;13.73;59.63
55347;BME280;41218;55.700;38.270;2023-04-26T17:22:27;98772.13;;;13.58;59.79
55347;BME280;41218;55.700;38.270;2023-04-26T17:27:28;98777.41;;;13.46;59.60
55347;BME280;41218;55.700;38.270;2023-04-26T17:32:28;98777.56;;;13.31;59.97
55347;BME280;41218;55.700;38.270;2023-04-26T17:37:29;98786.34;;;13.22;59.78
55347;BME280;41218;55.700;38.270;2023-04-26T17:42:29;98791.19;;;13.11;59.97
55347;BME280;41218;55.700;38.270;2023-04-26T17:47:30;98809.09;;;13.03;60.18
55347;BME280;41218;55.700;38.270;2023-04-26T17:52:30;98815.16;;;12.91;60.04
55347;BME280;41218;55.700;38.270;2023-04-26T17:57:31;98822.34;;;12.81;60.10
55347;BME280;41218;55.700;38.270;2023-04-26T18:02:31;98823.22;;;12.67;60.00
55347;BME280;41218;55.700;38.270;2023-04-26T18:07:32;98834.00;;;12.54;60.10
55347;BME280;41218;55.700;38.270;2023-04-26T18:12:33;98847.16;;;12.43;60.25
55347;BME280;41218;55.700;38.270;2023-04-26T18:17:33;98843.66;;;12.32;60.27
55347;BME280;41218;55.700;38.270;2023-04-26T18:22:34;98851.59;;;12.22;60.17
55347;BME280;41218;55.700;38.270;2023-04-26T18:27:34;98849.28;;;12.14;60.37
55347;BME280;41218;55.700;38.270;2023-04-26T18:32:35;98855.25;;;12.05;60.26
55347;BME280;41218;55.700;38.270;2023-04-26T18:37:35;98857.28;;;11.90;60.19
55347;BME280;41218;55.700;38.270;2023-04-26T18:42:36;98859.25;;;11.90;60.27
55347;BME280;41218;55.700;38.270;2023-04-26T18:47:38;98854.53;;;11.69;60.34
55347;BME280;41218;55.700;38.270;2023-04-26T18:52:38;98856.53;;;11.61;60.20
55347;BME280;41218;55.700;38.270;2023-04-26T18:57:39;98859.72;;;11.52;60.32
55347;BME280;41218;55.700;38.270;2023-04-26T19:02:39;98863.69;;;11.40;60.35
55347;BME280;41218;55.700;38.270;2023-04-26T19:07:40;98877.13;;;11.31;60.43
55347;BME280;41218;55.700;38.270;2023-04-26T19:12:41;98890.56;;;11.22;60.47
55347;BME280;41218;55.700;38.270;2023-04-26T19:17:41;98883.44;;;11.10;60.43
55347;BME280;41218;55.700;38.270;2023-04-26T19:22:41;98885.84;;;11.01;60.68
55347;BME280;41218;55.700;38.270;2023-04-26T19:27:44;98888.19;;;10.92;60.51
55347;BME280;41218;55.700;38.270;2023-04-26T19:32:45;98897.25;;;10.85;60.54
55347;BME280;41218;55.700;38.270;2023-04-26T19:37:45;98892.88;;;10.73;60.62
55347;BME280;41218;55.700;38.270;2023-04-26T19:42:46;98902.75;;;10.71;60.64
55347;BME280;41218;55.700;38.270;2023-04-26T19:47:46;98901.94;;;10.59;60.67
55347;BME280;41218;55.700;38.270;2023-04-26T19:52:47;98901.53;;;10.50;60.65
55347;BME280;41218;55.700;38.270;2023-04-26T19:57:47;98912.94;;;10.45;60.82
55347;BME280;41218;55.700;38.270;2023-04-26T20:02:48;98915.69;;;10.41;60.62
55347;BME280;41218;55.700;38.270;2023-04-26T20:07:48;98925.91;;;10.34;60.72
55347;BME280;41218;55.700;38.270;2023-04-26T20:12:49;98925.47;;;10.25;60.84
55347;BME280;41218;55.700;38.270;2023-04-26T20:17:49;98937.69;;;10.20;60.78
55347;BME280;41218;55.700;38.270;2023-04-26T20:22:50;98943.16;;;10.13;60.73
55347;BME280;41218;55.700;38.270;2023-04-26T20:27:50;98952.97;;;10.07;60.71
55347;BME280;41218;55.700;38.270;2023-04-26T20:32:51;98946.22;;;9.97;60.99
55347;BME280;41218;55.700;38.270;2023-04-26T20:37:52;98954.06;;;9.91;60.94
55347;BME280;41218;55.700;38.270;2023-04-26T20:42:52;98955.59;;;9.81;60.91
55347;BME280;41218;55.700;38.270;2023-04-26T20:47:53;98961.44;;;9.73;61.00
55347;BME280;41218;55.700;38.270;2023-04-26T20:52:54;98974.41;;;9.69;61.18
55347;BME280;41218;55.700;38.270;2023-04-26T20:57:54;98975.53;;;9.60;61.11
55347;BME280;41218;55.700;38.270;2023-04-26T21:02:55;98982.97;;;9.53;61.06
55347;BME280;41218;55.700;38.270;2023-04-26T21:07:55;98989.22;;;9.46;61.19
55347;BME280;41218;55.700;38.270;2023-04-26T21:12:56;98991.09;;;9.38;60.97
55347;BME280;41218;55.700;38.270;2023-04-26T21:17:56;98979.63;;;9.29;61.26
55347;BME280;41218;55.700;38.270;2023-04-26T21:22:57;98997.31;;;9.25;61.28
55347;BME280;41218;55.700;38.270;2023-04-26T21:27:57;98990.88;;;9.13;61.33
55347;BME280;41218;55.700;38.270;2023-04-26T21:32:58;99006.25;;;9.14;61.17
55347;BME280;41218;55.700;38.270;2023-04-26T21:37:59;99018.03;;;9.11;61.16
55347;BME280;41218;55.700;38.270;2023-04-26T21:42:59;99018.41;;;9.10;61.10
55347;BME280;41218;55.700;38.270;2023-04-26T21:48:00;99023.84;;;9.02;60.99
55347;BME280;41218;55.700;38.270;2023-04-26T21:53:00;99029.31;;;8.99;61.50
55347;BME280;41218;55.700;38.270;2023-04-26T21:58:01;99018.22;;;8.92;61.48
55347;BME280;41218;55.700;38.270;2023-04-26T22:03:01;99028.03;;;8.89;61.43
55347;BME280;41218;55.700;38.270;2023-04-26T22:08:02;99024.38;;;8.81;61.58
55347;BME280;41218;55.700;38.270;2023-04-26T22:13:02;99029.88;;;8.78;61.32
55347;BME280;41218;55.700;38.270;2023-04-26T22:18:04;99028.59;;;8.72;61.55
55347;BME280;41218;55.700;38.270;2023-04-26T22:23:04;99028.91;;;8.63;61.24
55347;BME280;41218;55.700;38.270;2023-04-26T22:28:05;99034.34;;;8.59;61.24
55347;BME280;41218;55.700;38.270;2023-04-26T22:33:06;99041.78;;;8.55;61.22
55347;BME280;41218;55.700;38.270;2023-04-26T22:38:06;99035.81;;;8.50;61.25
55347;BME280;41218;55.700;38.270;2023-04-26T22:43:07;99045.56;;;8.44;61.33
55347;BME280;41218;55.700;38.270;2023-04-26T22:48:07;99044.22;;;8.34;61.47
55347;BME280;41218;55.700;38.270;2023-04-26T22:53:08;99045.28;;;8.26;61.54
55347;BME280;41218;55.700;38.270;2023-04-26T22:58:09;99049.53;;;8.19;61.38
55347;BME280;41218;55.700;38.270;2023-04-26T23:03:09;99057.81;;;8.23;61.57
55347;BME280;41218;55.700;38.270;2023-04-26T23:08:10;99060.78;;;8.11;61.08
55347;BME280;41218;55.700;38.270;2023-04-26T23:13:10;99065.41;;;8.03;61.18
55347;BME280;41218;55.700;38.270;2023-04-26T23:18:11;99061.00;;;7.98;61.01
55347;BME280;41218;55.700;38.270;2023-04-26T23:23:12;99066.13;;;8.00;61.36
55347;BME280;41218;55.700;38.270;2023-04-26T23:28:13;99074.22;;;7.89;61.03
55347;BME280;41218;55.700;38.270;2023-04-26T23:33:13;99083.94;;;7.83;61.15
55347;BME280;41218;55.700;38.270;2023-04-26T23:38:14;99082.25;;;7.75;61.18
55347;BME280;41218;55.700;38.270;2023-04-26T23:43:14;99093.13;;;7.68;61.37
55347;BME280;41218;55.700;38.270;2023-04-26T23:48:16;99093.44;;;7.62;61.29
55347;BME280;41218;55.700;38.270;2023-04-26T23:53:16;99089.31;;;7.53;61.59
55347;BME280;41218;55.700;38.270;2023-04-26T23:58:17;99101.03;;;7.50;60.86
